createdAt,value
2019-03-28T00:00:12.319Z,14.37
2019-03-28T00:02:43.251Z,12.57
2019-03-28T00:05:12.614Z,16.57
2019-03-28T00:07:41.885Z,15.77
2019-03-28T00:10:11.245Z,14.90
2019-03-28T00:12:40.525Z,12.13
2019-03-28T00:15:09.953Z,23.87
2019-03-28T00:17:39.240Z,10.50
2019-03-28T00:20:08.665Z,19.17
2019-03-28T00:22:48.166Z,15.67
2019-03-28T00:25:23.288Z,17.10
2019-03-28T00:27:52.587Z,14.63
2019-03-28T00:30:22.293Z,14.90
2019-03-28T00:32:52.561Z,14.13
2019-03-28T00:35:21.855Z,16.80
2019-03-28T00:37:51.126Z,14.20
2019-03-28T00:40:20.422Z,17.47
2019-03-28T00:42:49.696Z,14.77
2019-03-28T00:45:18.989Z,18.07
2019-03-28T00:47:48.265Z,15.90
2019-03-28T00:50:17.726Z,15.33
2019-03-28T00:52:46.999Z,15.60
2019-03-28T00:55:16.302Z,14.27
2019-03-28T00:57:45.571Z,15.90
2019-03-28T01:00:16.990Z,18.97
2019-03-28T01:02:46.269Z,24.73
2019-03-28T01:05:15.629Z,21.67
2019-03-28T01:07:44.908Z,21.20
2019-03-28T01:10:14.473Z,23.17
2019-03-28T01:12:43.749Z,20.93
2019-03-28T01:18:00.399Z,18.60
2019-03-28T01:20:29.698Z,19.80
2019-03-28T01:22:59.005Z,18.83
2019-03-28T01:25:28.351Z,16.47
2019-03-28T01:27:57.635Z,21.93
2019-03-28T01:30:26.934Z,28.17
2019-03-28T01:32:56.306Z,23.90
2019-03-28T01:35:25.588Z,23.13
2019-03-28T01:37:54.891Z,22.23
2019-03-28T01:40:24.171Z,20.60
2019-03-28T01:42:53.469Z,25.37
2019-03-28T01:45:22.751Z,21.70
2019-03-28T01:47:52.033Z,29.73
2019-03-28T01:50:21.333Z,28.57
2019-03-28T01:52:50.616Z,21.70
2019-03-28T01:55:19.910Z,23.57
2019-03-28T01:57:50.158Z,24.33
2019-03-28T02:00:19.467Z,25.83
2019-03-28T02:02:48.746Z,18.77
2019-03-28T02:05:18.262Z,21.07
2019-03-28T02:07:47.672Z,24.63
2019-03-28T02:10:17.945Z,22.73
2019-03-28T02:12:47.226Z,24.13
2019-03-28T02:15:16.837Z,23.97
2019-03-28T02:17:46.113Z,30.00
2019-03-28T02:20:15.602Z,27.63
2019-03-28T02:22:45.192Z,25.30
2019-03-28T02:25:14.479Z,22.10
2019-03-28T02:27:43.846Z,27.87
2019-03-28T02:30:13.266Z,31.00
2019-03-28T02:32:42.618Z,32.20
2019-03-28T02:35:11.922Z,27.80
2019-03-28T02:37:41.562Z,27.20
2019-03-28T02:40:11.006Z,27.13
2019-03-28T02:42:41.045Z,25.07
2019-03-28T02:45:10.397Z,30.87
2019-03-28T02:47:39.878Z,22.20
2019-03-28T02:50:09.645Z,27.53
2019-03-28T02:52:38.921Z,24.10
2019-03-28T02:55:08.450Z,24.17
2019-03-28T02:57:41.542Z,28.93
2019-03-28T03:00:09.175Z,24.37
2019-03-28T03:02:38.551Z,24.33
2019-03-28T03:05:08.865Z,25.73
2019-03-28T03:07:38.163Z,23.43
2019-03-28T03:10:07.684Z,19.23
2019-03-28T03:12:37.105Z,28.00
2019-03-28T03:15:07.219Z,25.90
2019-03-28T03:17:36.521Z,24.17
2019-03-28T03:20:07.945Z,25.13
2019-03-28T03:22:37.282Z,27.53
2019-03-28T03:25:07.446Z,29.10
2019-03-28T03:27:37.698Z,28.70
2019-03-28T03:30:08.323Z,26.60
2019-03-28T03:32:37.622Z,30.07
2019-03-28T03:35:07.034Z,24.13
2019-03-28T03:37:36.336Z,29.60
2019-03-28T03:40:08.114Z,29.67
2019-03-28T03:42:37.479Z,28.20
2019-03-28T03:45:09.229Z,25.77
2019-03-28T03:47:38.886Z,26.97
2019-03-28T03:50:08.941Z,24.27
2019-03-28T03:52:38.199Z,28.10
2019-03-28T03:55:07.740Z,27.50
2019-03-28T03:57:37.073Z,25.93
2019-03-28T04:00:08.200Z,28.53
2019-03-28T04:02:37.497Z,30.30
2019-03-28T04:05:07.438Z,28.77
2019-03-28T04:07:36.738Z,29.70
2019-03-28T04:10:07.053Z,28.30
2019-03-28T04:12:36.360Z,29.73
2019-03-28T04:15:06.837Z,30.27
2019-03-28T04:17:36.116Z,27.90
2019-03-28T04:20:07.321Z,31.57
2019-03-28T04:22:37.139Z,27.93
2019-03-28T04:25:07.892Z,28.23
2019-03-28T04:27:37.170Z,25.43
2019-03-28T04:30:07.506Z,23.00
2019-03-28T04:32:36.979Z,28.67
2019-03-28T04:35:06.707Z,27.77
2019-03-28T04:37:35.979Z,31.83
2019-03-28T04:40:07.045Z,30.00
2019-03-28T04:42:36.366Z,26.47
2019-03-28T04:45:06.109Z,26.60
2019-03-28T04:47:36.268Z,27.63
2019-03-28T04:50:06.481Z,28.67
2019-03-28T04:52:35.755Z,32.57
2019-03-28T04:55:07.198Z,30.57
2019-03-28T04:57:36.481Z,26.63
2019-03-28T05:00:07.634Z,30.23
2019-03-28T05:02:37.960Z,37.20
2019-03-28T05:05:07.812Z,29.63
2019-03-28T05:07:37.108Z,27.40
2019-03-28T05:10:08.523Z,27.13
2019-03-28T05:12:37.813Z,30.77
2019-03-28T05:15:11.062Z,24.70
2019-03-28T05:17:40.570Z,25.87
2019-03-28T05:20:13.238Z,26.33
2019-03-28T05:22:42.047Z,28.40
2019-03-28T05:25:11.458Z,29.83
2019-03-28T05:27:40.743Z,26.57
2019-03-28T05:30:11.629Z,27.80
2019-03-28T05:32:40.927Z,27.53
2019-03-28T05:35:10.765Z,34.70
2019-03-28T05:37:40.047Z,29.77
2019-03-28T05:40:09.627Z,33.00
2019-03-28T05:42:38.898Z,34.27
2019-03-28T05:45:08.466Z,29.50
2019-03-28T05:47:37.755Z,35.60
2019-03-28T05:50:07.199Z,30.87
2019-03-28T05:52:36.657Z,32.67
2019-03-28T05:55:07.349Z,29.53
2019-03-28T05:57:36.638Z,33.57
2019-03-28T06:00:06.575Z,29.33
2019-03-28T06:02:35.858Z,35.40
2019-03-28T06:05:06.903Z,31.33
2019-03-28T06:07:36.444Z,33.83
2019-03-28T06:10:09.133Z,30.33
2019-03-28T06:12:38.450Z,31.67
2019-03-28T06:15:08.398Z,31.33
2019-03-28T06:17:37.671Z,32.20
2019-03-28T06:20:07.833Z,30.77
2019-03-28T06:22:37.132Z,31.73
2019-03-28T06:25:07.001Z,31.27
2019-03-28T06:27:36.279Z,28.80
2019-03-28T06:30:10.247Z,28.40
2019-03-28T06:32:43.062Z,35.30
2019-03-28T06:35:10.034Z,25.13
2019-03-28T06:37:39.318Z,32.63
2019-03-28T06:40:08.887Z,26.03
2019-03-28T06:42:38.189Z,34.77
2019-03-28T06:45:08.034Z,27.17
2019-03-28T06:47:37.337Z,29.70
2019-03-28T06:50:07.420Z,27.83
2019-03-28T06:52:36.733Z,24.47
2019-03-28T06:55:06.657Z,28.33
2019-03-28T06:57:35.931Z,31.03
2019-03-28T07:00:11.858Z,31.23
2019-03-28T07:02:41.146Z,32.53
2019-03-28T07:05:11.497Z,27.30
2019-03-28T07:07:40.771Z,28.97
2019-03-28T07:10:11.028Z,24.50
2019-03-28T07:12:40.363Z,28.17
2019-03-28T07:15:10.722Z,30.10
2019-03-28T07:17:40.018Z,31.57
2019-03-28T07:20:09.675Z,32.73
2019-03-28T07:22:38.974Z,29.47
2019-03-28T07:25:09.234Z,30.10
2019-03-28T07:27:38.565Z,29.67
2019-03-28T07:30:11.657Z,27.77
2019-03-28T07:32:43.415Z,31.63
2019-03-28T07:35:12.146Z,28.13
2019-03-28T07:37:41.503Z,28.90
2019-03-28T07:40:10.971Z,29.97
2019-03-28T07:42:40.255Z,29.57
2019-03-28T07:45:09.899Z,28.87
2019-03-28T07:47:39.171Z,29.40
2019-03-28T07:50:09.110Z,25.23
2019-03-28T07:52:38.405Z,24.73
2019-03-28T07:55:08.842Z,24.17
2019-03-28T07:57:38.211Z,28.77
2019-03-28T08:00:09.939Z,26.60
2019-03-28T08:02:39.213Z,20.83
2019-03-28T08:05:09.546Z,24.17
2019-03-28T08:07:44.869Z,26.27
2019-03-28T08:10:11.156Z,28.97
2019-03-28T08:12:40.497Z,24.93
2019-03-28T08:15:10.339Z,28.03
2019-03-28T08:17:39.621Z,25.37
2019-03-28T08:20:11.602Z,27.53
2019-03-28T08:22:40.882Z,28.10
2019-03-28T08:25:12.009Z,24.47
2019-03-28T08:27:41.585Z,26.10
2019-03-28T08:30:18.160Z,25.23
2019-03-28T08:32:42.687Z,27.57
2019-03-28T08:35:12.235Z,23.37
2019-03-28T08:37:41.862Z,23.40
2019-03-28T08:40:14.241Z,28.47
2019-03-28T08:42:43.514Z,25.37
2019-03-28T08:45:12.893Z,21.63
2019-03-28T08:47:42.174Z,24.33
2019-03-28T08:50:11.548Z,25.47
2019-03-28T08:52:40.827Z,27.70
2019-03-28T08:55:10.433Z,23.50
2019-03-28T08:57:39.743Z,24.57
2019-03-28T09:00:10.924Z,25.90
2019-03-28T09:02:40.299Z,25.50
2019-03-28T09:05:09.577Z,20.07
2019-03-28T09:07:38.909Z,21.87
2019-03-28T09:10:08.736Z,23.87
2019-03-28T09:12:38.115Z,23.23
2019-03-28T09:15:08.107Z,24.67
2019-03-28T09:17:37.409Z,21.10
2019-03-28T09:20:10.069Z,21.83
2019-03-28T09:22:39.400Z,23.03
2019-03-28T09:25:08.946Z,19.87
2019-03-28T09:27:38.253Z,21.53
2019-03-28T09:30:09.170Z,20.77
2019-03-28T09:32:38.744Z,18.13
2019-03-28T09:35:08.594Z,20.67
2019-03-28T09:37:37.902Z,18.67
2019-03-28T09:40:07.734Z,19.90
2019-03-28T09:42:37.046Z,21.53
2019-03-28T09:45:08.971Z,21.43
2019-03-28T09:47:38.271Z,24.17
2019-03-28T09:50:07.685Z,20.80
2019-03-28T09:52:36.991Z,20.63
2019-03-28T09:55:06.570Z,17.80
2019-03-28T09:57:35.955Z,22.17
2019-03-28T10:00:10.281Z,18.20
2019-03-28T10:02:39.579Z,20.10
2019-03-28T10:05:09.715Z,17.37
2019-03-28T10:07:39.156Z,15.87
2019-03-28T10:10:09.674Z,16.93
2019-03-28T10:12:38.990Z,21.47
2019-03-28T10:15:09.474Z,17.30
2019-03-28T10:17:38.786Z,21.33
2019-03-28T10:20:08.982Z,22.43
2019-03-28T10:22:38.395Z,20.13
2019-03-28T10:25:08.019Z,17.27
2019-03-28T10:27:37.593Z,16.67
2019-03-28T10:30:09.506Z,18.10
2019-03-28T10:32:38.813Z,16.83
2019-03-28T10:35:08.157Z,18.63
2019-03-28T10:37:37.459Z,17.23
2019-03-28T10:40:08.283Z,15.23
2019-03-28T10:42:37.621Z,16.43
2019-03-28T10:45:07.171Z,14.43
2019-03-28T10:47:36.456Z,12.77
2019-03-28T10:50:06.891Z,13.33
2019-03-28T10:52:36.190Z,15.27
2019-03-28T10:55:05.716Z,13.93
2019-03-28T10:57:35.018Z,14.57
2019-03-28T11:00:08.666Z,11.43
2019-03-28T11:02:38.797Z,11.30
2019-03-28T11:05:08.402Z,15.23
2019-03-28T11:07:37.710Z,15.63
2019-03-28T11:10:07.353Z,11.93
2019-03-28T11:12:36.629Z,11.20
2019-03-28T11:15:06.862Z,13.97
2019-03-28T11:17:36.148Z,10.63
2019-03-28T11:20:06.080Z,11.80
2019-03-28T11:22:35.349Z,11.87
2019-03-28T11:25:06.385Z,12.53
2019-03-28T11:27:35.671Z,10.37
2019-03-28T11:30:07.778Z,10.97
2019-03-28T11:32:37.051Z,10.70
2019-03-28T11:35:07.691Z,13.10
2019-03-28T11:37:37.305Z,12.83
2019-03-28T11:40:09.351Z,11.50
2019-03-28T11:42:39.982Z,13.27
2019-03-28T11:45:09.978Z,10.43
2019-03-28T11:47:39.389Z,10.03
2019-03-28T11:50:10.796Z,8.63
2019-03-28T11:52:42.538Z,9.30
2019-03-28T11:55:11.489Z,7.20
2019-03-28T11:57:40.798Z,7.60
2019-03-28T12:00:16.043Z,8.57
2019-03-28T12:02:46.358Z,9.97
2019-03-28T12:05:15.794Z,7.80
2019-03-28T12:07:45.064Z,8.70
2019-03-28T12:10:14.797Z,6.37
2019-03-28T12:12:44.071Z,10.47
2019-03-28T12:15:13.805Z,9.50
2019-03-28T12:17:43.150Z,6.90
2019-03-28T12:20:12.789Z,10.47
2019-03-28T12:22:43.048Z,8.13
2019-03-28T12:25:12.578Z,9.90
2019-03-28T12:27:41.858Z,8.90
2019-03-28T12:30:15.734Z,11.93
2019-03-28T12:32:43.556Z,7.43
2019-03-28T12:35:13.121Z,7.43
2019-03-28T12:37:42.402Z,10.70
2019-03-28T12:40:12.731Z,6.00
2019-03-28T12:42:42.007Z,7.97
2019-03-28T12:45:12.351Z,6.93
2019-03-28T12:47:43.170Z,9.60
2019-03-28T12:50:13.801Z,8.07
2019-03-28T12:52:43.107Z,11.30
2019-03-28T12:55:12.645Z,10.60
2019-03-28T12:57:41.918Z,9.67
2019-03-28T13:00:12.977Z,10.20
2019-03-28T13:02:43.321Z,10.77
2019-03-28T13:05:12.858Z,8.50
2019-03-28T13:07:42.150Z,11.43
2019-03-28T13:10:12.298Z,12.73
2019-03-28T13:12:41.568Z,10.20
2019-03-28T13:15:11.005Z,9.33
2019-03-28T13:17:40.283Z,8.97
2019-03-28T13:20:10.016Z,9.97
2019-03-28T13:22:39.293Z,8.47
2019-03-28T13:25:08.655Z,8.20
2019-03-28T13:27:37.921Z,9.20
2019-03-28T13:30:12.574Z,9.17
2019-03-28T13:32:42.541Z,8.40
2019-03-28T13:35:12.121Z,9.37
2019-03-28T13:37:41.439Z,8.73
2019-03-28T13:40:11.770Z,9.43
2019-03-28T13:42:41.042Z,9.93
2019-03-28T13:45:12.193Z,7.90
2019-03-28T13:47:41.470Z,10.17
2019-03-28T13:50:12.745Z,7.17
2019-03-28T13:52:42.041Z,8.43
2019-03-28T13:55:11.378Z,9.23
2019-03-28T13:57:43.293Z,10.47
2019-03-28T14:00:13.959Z,10.90
2019-03-28T14:02:54.890Z,7.83
2019-03-28T14:05:14.255Z,8.27
2019-03-28T14:07:43.550Z,10.93
2019-03-28T14:10:13.067Z,8.60
2019-03-28T14:12:42.598Z,8.57
2019-03-28T14:15:11.967Z,12.27
2019-03-28T14:17:41.241Z,8.47
2019-03-28T14:20:11.174Z,7.33
2019-03-28T14:22:40.455Z,7.53
2019-03-28T14:25:09.886Z,7.87
2019-03-28T14:27:39.157Z,5.80
2019-03-28T14:30:11.357Z,7.10
2019-03-28T14:32:52.599Z,7.87
2019-03-28T14:35:15.454Z,6.27
2019-03-28T14:37:44.758Z,5.83
2019-03-28T14:40:14.397Z,6.30
2019-03-28T14:42:43.665Z,6.10
2019-03-28T14:45:13.035Z,8.60
2019-03-28T14:47:42.320Z,8.57
2019-03-28T14:50:12.369Z,6.40
2019-03-28T14:52:41.630Z,9.87
2019-03-28T14:55:11.562Z,6.43
2019-03-28T14:57:40.911Z,9.40
2019-03-28T15:00:46.986Z,6.10
2019-03-28T15:03:25.879Z,7.60
2019-03-28T15:05:48.088Z,5.17
2019-03-28T15:08:18.293Z,5.40
2019-03-28T15:10:47.701Z,5.60
2019-03-28T15:13:17.135Z,5.30
2019-03-28T15:15:46.410Z,7.23
2019-03-28T15:18:16.655Z,6.17
2019-03-28T15:20:45.950Z,5.37
2019-03-28T15:23:15.217Z,5.17
2019-03-28T15:25:44.665Z,4.83
2019-03-28T15:28:13.943Z,4.63
2019-03-28T15:30:43.233Z,4.33
2019-03-28T15:33:12.505Z,3.70
2019-03-28T15:35:41.801Z,4.50
2019-03-28T15:38:11.080Z,4.13
2019-03-28T15:40:40.370Z,4.37
2019-03-28T15:43:09.660Z,5.40
2019-03-28T15:45:38.950Z,5.47
2019-03-28T15:48:08.221Z,6.27
2019-03-28T15:50:37.500Z,4.80
2019-03-28T15:53:06.798Z,5.50
2019-03-28T15:55:36.065Z,6.83
2019-03-28T15:58:05.361Z,8.80
2019-03-28T16:00:34.638Z,5.33
2019-03-28T16:03:03.945Z,7.63
2019-03-28T16:05:33.210Z,6.13
2019-03-28T16:08:02.501Z,5.30
2019-03-28T16:10:32.758Z,4.87
2019-03-28T16:13:02.045Z,4.47
2019-03-28T16:15:31.389Z,4.93
2019-03-28T16:18:00.683Z,4.30
2019-03-28T16:20:29.990Z,4.67
2019-03-28T16:22:59.264Z,4.80
2019-03-28T16:25:28.630Z,3.67
2019-03-28T16:27:57.898Z,7.30
2019-03-28T16:30:34.789Z,6.57
2019-03-28T16:33:04.135Z,7.40
2019-03-28T16:35:33.429Z,6.17
2019-03-28T16:38:02.701Z,7.67
2019-03-28T16:40:32.004Z,5.80
2019-03-28T16:43:01.307Z,5.87
2019-03-28T16:45:30.665Z,5.00
2019-03-28T16:47:59.943Z,4.53
2019-03-28T16:50:29.244Z,5.90
2019-03-28T16:52:58.527Z,4.30
2019-03-28T16:55:28.287Z,5.97
2019-03-28T16:57:57.699Z,6.57
2019-03-28T17:00:35.002Z,6.67
2019-03-28T17:03:05.285Z,6.50
2019-03-28T17:05:34.900Z,8.37
2019-03-28T17:08:05.827Z,9.57
2019-03-28T17:10:43.422Z,10.73
2019-03-28T17:13:12.833Z,8.03
2019-03-28T17:15:42.201Z,6.73
2019-03-28T17:18:11.474Z,5.53
2019-03-28T17:20:40.970Z,6.03
2019-03-28T17:23:10.216Z,7.00
2019-03-28T17:25:40.474Z,7.83
2019-03-28T17:28:09.759Z,4.57
2019-03-28T17:30:39.064Z,6.60
2019-03-28T17:33:08.330Z,5.40
2019-03-28T17:35:37.631Z,6.97
2019-03-28T17:38:06.923Z,7.73
2019-03-28T17:40:39.291Z,4.90
2019-03-28T17:43:08.689Z,4.60
2019-03-28T17:45:38.064Z,6.27
2019-03-28T17:48:07.347Z,10.03
2019-03-28T17:50:36.766Z,5.27
2019-03-28T17:53:06.031Z,6.07
2019-03-28T17:55:35.448Z,6.70
2019-03-28T17:58:04.948Z,5.77
2019-03-28T18:00:34.364Z,6.13
2019-03-28T18:03:09.633Z,5.80
2019-03-28T18:05:34.845Z,5.13
2019-03-28T18:08:04.184Z,7.07
2019-03-28T18:10:33.490Z,5.63
2019-03-28T18:13:02.794Z,7.67
2019-03-28T18:15:32.093Z,6.17
2019-03-28T18:18:01.393Z,5.23
2019-03-28T18:20:30.709Z,5.17
2019-03-28T18:23:00.015Z,4.23
2019-03-28T18:25:30.471Z,7.23
2019-03-28T18:27:59.871Z,7.40
2019-03-28T18:30:30.897Z,5.40
2019-03-28T18:33:00.179Z,6.13
2019-03-28T18:35:29.470Z,5.53
2019-03-28T18:37:58.768Z,7.30
2019-03-28T18:40:28.044Z,6.50
2019-03-28T18:42:57.968Z,4.73
2019-03-28T18:45:27.444Z,5.73
2019-03-28T18:47:56.743Z,5.77
2019-03-28T18:50:26.138Z,6.67
2019-03-28T18:52:55.550Z,5.77
2019-03-28T18:55:24.872Z,8.67
2019-03-28T18:57:54.198Z,6.77
2019-03-28T19:00:23.731Z,6.63
2019-03-28T19:02:53.052Z,5.33
2019-03-28T19:05:22.940Z,4.93
2019-03-28T19:07:52.502Z,7.83
2019-03-28T19:10:21.851Z,9.40
2019-03-28T19:12:51.238Z,6.80
2019-03-28T19:15:20.522Z,7.33
2019-03-28T19:17:49.826Z,5.20
2019-03-28T19:20:19.105Z,6.43
2019-03-28T19:22:50.192Z,7.13
2019-03-28T19:25:19.433Z,6.10
2019-03-28T19:27:48.733Z,8.03
2019-03-28T19:30:21.089Z,9.00
2019-03-28T19:32:50.383Z,9.90
2019-03-28T19:35:32.179Z,7.80
2019-03-28T19:37:50.848Z,7.87
2019-03-28T19:40:20.194Z,9.33
2019-03-28T19:42:49.492Z,8.43
2019-03-28T19:45:21.844Z,11.23
2019-03-28T19:47:51.146Z,9.00
2019-03-28T19:50:29.368Z,10.87
2019-03-28T19:52:58.865Z,10.17
2019-03-28T19:55:29.032Z,12.10
2019-03-28T19:58:05.240Z,11.83
2019-03-28T20:00:34.497Z,10.00
2019-03-28T20:03:03.858Z,8.83
2019-03-28T20:05:46.339Z,12.63
2019-03-28T20:08:14.676Z,10.97
2019-03-28T20:10:35.206Z,9.93
2019-03-28T20:13:05.537Z,9.23
2019-03-28T20:15:34.894Z,11.60
2019-03-28T20:18:04.653Z,10.53
2019-03-28T20:20:33.931Z,9.90
2019-03-28T20:23:03.303Z,10.83
2019-03-28T20:25:32.753Z,9.70
2019-03-28T20:28:03.291Z,10.33
2019-03-28T20:30:32.643Z,8.47
2019-03-28T20:33:01.993Z,11.37
2019-03-28T20:35:31.301Z,11.07
2019-03-28T20:38:00.603Z,12.43
2019-03-28T20:40:29.877Z,13.50
2019-03-28T20:42:59.186Z,12.43
2019-03-28T20:45:28.577Z,10.47
2019-03-28T20:47:57.922Z,11.40
2019-03-28T20:50:31.769Z,12.20
2019-03-28T20:53:00.007Z,10.00
2019-03-28T20:55:29.283Z,10.00
2019-03-28T20:57:58.562Z,10.93
2019-03-28T21:00:40.220Z,11.83
2019-03-28T21:03:09.494Z,9.30
2019-03-28T21:05:39.771Z,10.80
2019-03-28T21:08:09.114Z,10.83
2019-03-28T21:10:38.497Z,11.00
2019-03-28T21:13:07.787Z,10.27
2019-03-28T21:15:37.080Z,11.67
2019-03-28T21:18:07.455Z,10.63
2019-03-28T21:20:37.956Z,12.73
2019-03-28T21:23:07.376Z,11.37
2019-03-28T21:25:36.842Z,13.43
2019-03-28T21:28:06.839Z,12.00
2019-03-28T21:30:46.593Z,13.47
2019-03-28T21:33:07.154Z,11.67
2019-03-28T21:35:36.460Z,10.10
2019-03-28T21:38:05.735Z,18.70
2019-03-28T21:40:35.119Z,13.37
2019-03-28T21:43:04.919Z,14.40
2019-03-28T21:45:34.377Z,18.93
2019-03-28T21:48:03.669Z,18.00
2019-03-28T21:50:32.986Z,20.37
2019-03-28T21:53:02.265Z,14.40
2019-03-28T21:55:31.558Z,20.97
2019-03-28T21:58:00.861Z,19.17
2019-03-28T22:00:30.164Z,22.77
2019-03-28T22:02:59.449Z,22.00
2019-03-28T22:05:30.042Z,20.33
2019-03-28T22:07:59.995Z,15.00
2019-03-28T22:10:29.294Z,18.97
2019-03-28T22:12:59.262Z,16.30
2019-03-28T22:15:29.533Z,13.30
2019-03-28T22:17:58.877Z,15.30
2019-03-28T22:20:28.177Z,12.53
2019-03-28T22:22:57.461Z,22.97
2019-03-28T22:25:26.762Z,22.17
2019-03-28T22:27:56.046Z,13.67
2019-03-28T22:30:25.343Z,14.97
2019-03-28T22:32:54.618Z,13.70
2019-03-28T22:35:23.932Z,16.57
2019-03-28T22:37:53.216Z,18.80
2019-03-28T22:40:22.532Z,13.97
2019-03-28T22:42:51.813Z,18.63
2019-03-28T22:45:21.126Z,16.50
2019-03-28T22:47:50.402Z,14.43
2019-03-28T22:50:19.709Z,14.00
2019-03-28T22:52:49.002Z,13.00
2019-03-28T22:55:18.274Z,14.33
2019-03-28T22:57:47.578Z,14.13
2019-03-28T23:00:18.785Z,15.27
2019-03-28T23:02:49.865Z,15.20
2019-03-28T23:05:19.309Z,14.30
2019-03-28T23:07:48.606Z,15.87
2019-03-28T23:10:20.878Z,14.53
2019-03-28T23:12:48.901Z,17.13
2019-03-28T23:15:21.695Z,19.50
2019-03-28T23:17:49.249Z,18.23
2019-03-28T23:20:18.557Z,15.30
2019-03-28T23:22:47.857Z,14.03
2019-03-28T23:25:17.156Z,13.93
2019-03-28T23:27:46.450Z,14.90
2019-03-28T23:30:15.791Z,18.30
2019-03-28T23:32:45.254Z,20.97
2019-03-28T23:35:14.809Z,17.00
2019-03-28T23:37:44.302Z,16.47
2019-03-28T23:40:13.650Z,14.20
2019-03-28T23:42:43.912Z,16.43
2019-03-28T23:45:13.658Z,15.17
2019-03-28T23:47:43.001Z,15.50
2019-03-28T23:50:12.294Z,13.07
2019-03-28T23:52:42.170Z,14.00
2019-03-28T23:55:12.154Z,13.73
2019-03-28T23:57:41.425Z,12.33
